sensor_id;sensor_type;location;lat;lon;timestamp;temperature;humidity
46366;DHT22;32073;49.166;8.076;2023-04-03T00:00:38;8.70;54.60
46366;DHT22;32073;49.166;8.076;2023-04-03T00:04:39;8.70;54.40
46366;DHT22;32073;49.166;8.076;2023-04-03T00:08:40;8.70;54.20
46366;DHT22;32073;49.166;8.076;2023-04-03T00:12:41;8.50;54.00
46366;DHT22;32073;49.166;8.076;2023-04-03T00:16:42;8.50;54.10
46366;DHT22;32073;49.166;8.076;2023-04-03T00:20:42;8.40;54.10
46366;DHT22;32073;49.166;8.076;2023-04-03T00:24:43;8.40;54.00
46366;DHT22;32073;49.166;8.076;2023-04-03T00:28:44;8.30;54.00
46366;DHT22;32073;49.166;8.076;2023-04-03T00:32:45;8.20;54.00
46366;DHT22;32073;49.166;8.076;2023-04-03T00:36:48;8.10;54.00
46366;DHT22;32073;49.166;8.076;2023-04-03T00:40:49;8.10;54.00
46366;DHT22;32073;49.166;8.076;2023-04-03T00:48:56;7.90;53.90
46366;DHT22;32073;49.166;8.076;2023-04-03T00:52:57;7.90;54.00
46366;DHT22;32073;49.166;8.076;2023-04-03T00:56:58;7.80;54.00
46366;DHT22;32073;49.166;8.076;2023-04-03T01:01:00;7.70;54.00
46366;DHT22;32073;49.166;8.076;2023-04-03T01:05:04;7.70;54.00
46366;DHT22;32073;49.166;8.076;2023-04-03T01:09:06;7.70;54.10
46366;DHT22;32073;49.166;8.076;2023-04-03T01:13:26;7.60;54.10
46366;DHT22;32073;49.166;8.076;2023-04-03T01:26:08;7.50;54.10
46366;DHT22;32073;49.166;8.076;2023-04-03T01:30:13;7.50;54.10
46366;DHT22;32073;49.166;8.076;2023-04-03T01:34:15;7.40;54.10
46366;DHT22;32073;49.166;8.076;2023-04-03T01:38:16;7.40;54.20
46366;DHT22;32073;49.166;8.076;2023-04-03T01:42:17;7.40;54.20
46366;DHT22;32073;49.166;8.076;2023-04-03T01:46:18;7.40;54.30
46366;DHT22;32073;49.166;8.076;2023-04-03T01:50:20;7.30;54.20
46366;DHT22;32073;49.166;8.076;2023-04-03T01:54:21;7.30;54.30
46366;DHT22;32073;49.166;8.076;2023-04-03T01:58:21;7.30;54.80
46366;DHT22;32073;49.166;8.076;2023-04-03T02:02:22;7.30;54.30
46366;DHT22;32073;49.166;8.076;2023-04-03T02:06:23;7.30;54.40
46366;DHT22;32073;49.166;8.076;2023-04-03T02:10:23;7.30;54.30
46366;DHT22;32073;49.166;8.076;2023-04-03T02:14:24;7.40;54.30
46366;DHT22;32073;49.166;8.076;2023-04-03T02:18:27;7.30;54.20
46366;DHT22;32073;49.166;8.076;2023-04-03T02:22:27;7.30;54.20
46366;DHT22;32073;49.166;8.076;2023-04-03T02:26:28;7.30;54.20
46366;DHT22;32073;49.166;8.076;2023-04-03T02:30:28;7.30;54.20
46366;DHT22;32073;49.166;8.076;2023-04-03T02:34:29;7.30;54.10
46366;DHT22;32073;49.166;8.076;2023-04-03T02:38:30;7.20;54.00
46366;DHT22;32073;49.166;8.076;2023-04-03T02:42:31;7.20;54.10
46366;DHT22;32073;49.166;8.076;2023-04-03T02:46:32;7.20;54.10
46366;DHT22;32073;49.166;8.076;2023-04-03T02:50:33;7.10;54.10
46366;DHT22;32073;49.166;8.076;2023-04-03T02:54:34;7.10;54.20
46366;DHT22;32073;49.166;8.076;2023-04-03T02:58:35;7.10;54.20
46366;DHT22;32073;49.166;8.076;2023-04-03T03:02:35;7.10;54.20
46366;DHT22;32073;49.166;8.076;2023-04-03T03:06:36;7.00;54.20
46366;DHT22;32073;49.166;8.076;2023-04-03T03:10:37;7.00;54.40
46366;DHT22;32073;49.166;8.076;2023-04-03T03:14:37;7.00;54.40
46366;DHT22;32073;49.166;8.076;2023-04-03T03:18:38;7.00;54.40
46366;DHT22;32073;49.166;8.076;2023-04-03T03:22:39;7.00;54.50
46366;DHT22;32073;49.166;8.076;2023-04-03T03:26:39;7.00;54.60
46366;DHT22;32073;49.166;8.076;2023-04-03T03:30:40;7.00;54.70
46366;DHT22;32073;49.166;8.076;2023-04-03T03:34:41;7.00;54.70
46366;DHT22;32073;49.166;8.076;2023-04-03T03:38:41;7.00;54.70
46366;DHT22;32073;49.166;8.076;2023-04-03T03:42:42;7.00;54.70
46366;DHT22;32073;49.166;8.076;2023-04-03T03:46:43;7.00;54.70
46366;DHT22;32073;49.166;8.076;2023-04-03T03:50:43;7.00;54.80
46366;DHT22;32073;49.166;8.076;2023-04-03T03:54:44;7.00;54.80
46366;DHT22;32073;49.166;8.076;2023-04-03T03:58:45;7.00;54.80
46366;DHT22;32073;49.166;8.076;2023-04-03T04:02:45;7.00;54.80
46366;DHT22;32073;49.166;8.076;2023-04-03T04:06:46;7.00;54.90
46366;DHT22;32073;49.166;8.076;2023-04-03T04:10:47;7.00;54.80
46366;DHT22;32073;49.166;8.076;2023-04-03T04:14:48;7.00;54.80
46366;DHT22;32073;49.166;8.076;2023-04-03T04:18:48;6.90;54.80
46366;DHT22;32073;49.166;8.076;2023-04-03T04:22:49;6.90;54.80
46366;DHT22;32073;49.166;8.076;2023-04-03T04:26:50;7.00;55.00
46366;DHT22;32073;49.166;8.076;2023-04-03T04:30:51;7.00;54.90
46366;DHT22;32073;49.166;8.076;2023-04-03T04:34:51;7.00;54.90
46366;DHT22;32073;49.166;8.076;2023-04-03T04:38:52;7.00;54.90
46366;DHT22;32073;49.166;8.076;2023-04-03T04:42:53;6.90;54.80
46366;DHT22;32073;49.166;8.076;2023-04-03T04:46:53;6.90;54.80
46366;DHT22;32073;49.166;8.076;2023-04-03T04:50:54;6.90;54.70
46366;DHT22;32073;49.166;8.076;2023-04-03T04:54:55;6.80;54.50
46366;DHT22;32073;49.166;8.076;2023-04-03T04:58:56;6.70;54.50
46366;DHT22;32073;49.166;8.076;2023-04-03T05:02:56;6.70;54.50
46366;DHT22;32073;49.166;8.076;2023-04-03T05:06:57;6.60;55.20
46366;DHT22;32073;49.166;8.076;2023-04-03T05:10:58;6.50;54.50
46366;DHT22;32073;49.166;8.076;2023-04-03T05:14:58;6.40;54.60
46366;DHT22;32073;49.166;8.076;2023-04-03T05:18:59;6.40;54.60
46366;DHT22;32073;49.166;8.076;2023-04-03T05:23:00;6.30;54.60
46366;DHT22;32073;49.166;8.076;2023-04-03T05:27:01;6.20;54.70
46366;DHT22;32073;49.166;8.076;2023-04-03T05:31:01;6.20;54.90
46366;DHT22;32073;49.166;8.076;2023-04-03T05:35:02;6.20;54.90
46366;DHT22;32073;49.166;8.076;2023-04-03T05:39:03;6.20;54.90
46366;DHT22;32073;49.166;8.076;2023-04-03T05:43:04;6.10;55.00
46366;DHT22;32073;49.166;8.076;2023-04-03T05:47:05;6.10;55.00
46366;DHT22;32073;49.166;8.076;2023-04-03T05:51:07;6.10;55.20
46366;DHT22;32073;49.166;8.076;2023-04-03T05:55:08;6.10;55.20
46366;DHT22;32073;49.166;8.076;2023-04-03T05:59:08;6.10;55.30
46366;DHT22;32073;49.166;8.076;2023-04-03T06:03:09;6.20;55.40
46366;DHT22;32073;49.166;8.076;2023-04-03T06:07:13;6.20;55.40
46366;DHT22;32073;49.166;8.076;2023-04-03T06:11:16;6.20;55.50
46366;DHT22;32073;49.166;8.076;2023-04-03T06:15:16;6.30;55.60
46366;DHT22;32073;49.166;8.076;2023-04-03T06:19:18;6.50;55.90
46366;DHT22;32073;49.166;8.076;2023-04-03T06:23:18;6.50;55.90
46366;DHT22;32073;49.166;8.076;2023-04-03T06:27:19;6.60;56.00
46366;DHT22;32073;49.166;8.076;2023-04-03T06:31:19;6.70;55.90
46366;DHT22;32073;49.166;8.076;2023-04-03T06:35:20;6.80;55.90
46366;DHT22;32073;49.166;8.076;2023-04-03T06:39:24;7.00;56.00
46366;DHT22;32073;49.166;8.076;2023-04-03T06:43:24;7.10;56.50
46366;DHT22;32073;49.166;8.076;2023-04-03T06:47:25;7.20;55.90
46366;DHT22;32073;49.166;8.076;2023-04-03T06:51:28;7.30;55.80
46366;DHT22;32073;49.166;8.076;2023-04-03T06:55:29;7.40;55.70
46366;DHT22;32073;49.166;8.076;2023-04-03T06:59:30;7.50;55.70
46366;DHT22;32073;49.166;8.076;2023-04-03T07:03:30;7.60;55.60
46366;DHT22;32073;49.166;8.076;2023-04-03T07:07:31;7.70;55.60
46366;DHT22;32073;49.166;8.076;2023-04-03T07:11:33;7.80;55.60
46366;DHT22;32073;49.166;8.076;2023-04-03T07:15:34;7.80;55.50
46366;DHT22;32073;49.166;8.076;2023-04-03T07:19:37;8.00;55.40
46366;DHT22;32073;49.166;8.076;2023-04-03T07:23:38;8.00;55.10
46366;DHT22;32073;49.166;8.076;2023-04-03T07:27:39;8.00;55.10
46366;DHT22;32073;49.166;8.076;2023-04-03T07:31:39;7.90;55.10
46366;DHT22;32073;49.166;8.076;2023-04-03T07:35:41;8.00;55.20
46366;DHT22;32073;49.166;8.076;2023-04-03T07:39:44;8.00;55.20
46366;DHT22;32073;49.166;8.076;2023-04-03T07:43:45;8.00;55.30
46366;DHT22;32073;49.166;8.076;2023-04-03T07:47:47;8.00;55.40
46366;DHT22;32073;49.166;8.076;2023-04-03T07:51:48;8.00;55.50
46366;DHT22;32073;49.166;8.076;2023-04-03T07:55:49;8.10;55.80
46366;DHT22;32073;49.166;8.076;2023-04-03T07:59:51;8.10;55.80
46366;DHT22;32073;49.166;8.076;2023-04-03T08:03:52;8.20;55.80
46366;DHT22;32073;49.166;8.076;2023-04-03T08:07:53;8.30;55.70
46366;DHT22;32073;49.166;8.076;2023-04-03T08:11:53;8.40;55.80
46366;DHT22;32073;49.166;8.076;2023-04-03T08:15:54;8.40;55.50
46366;DHT22;32073;49.166;8.076;2023-04-03T08:19:57;8.50;55.50
46366;DHT22;32073;49.166;8.076;2023-04-03T08:23:57;8.60;55.50
46366;DHT22;32073;49.166;8.076;2023-04-03T08:27:58;8.70;55.40
46366;DHT22;32073;49.166;8.076;2023-04-03T08:31:59;8.80;55.30
46366;DHT22;32073;49.166;8.076;2023-04-03T08:36:00;8.90;55.20
46366;DHT22;32073;49.166;8.076;2023-04-03T08:40:00;9.00;55.50
46366;DHT22;32073;49.166;8.076;2023-04-03T08:44:23;9.10;54.70
46366;DHT22;32073;49.166;8.076;2023-04-03T08:48:42;9.10;54.40
46366;DHT22;32073;49.166;8.076;2023-04-03T08:52:53;9.20;53.90
46366;DHT22;32073;49.166;8.076;2023-04-03T08:56:58;9.20;53.30
46366;DHT22;32073;49.166;8.076;2023-04-03T09:01:07;9.30;53.70
46366;DHT22;32073;49.166;8.076;2023-04-03T09:05:20;9.30;53.10
46366;DHT22;32073;49.166;8.076;2023-04-03T09:09:41;9.50;53.40
46366;DHT22;32073;49.166;8.076;2023-04-03T09:22:26;9.80;52.20
46366;DHT22;32073;49.166;8.076;2023-04-03T09:26:40;9.90;52.00
46366;DHT22;32073;49.166;8.076;2023-04-03T09:30:45;10.10;52.90
46366;DHT22;32073;49.166;8.076;2023-04-03T09:34:46;10.10;51.70
46366;DHT22;32073;49.166;8.076;2023-04-03T09:39:05;10.20;51.60
46366;DHT22;32073;49.166;8.076;2023-04-03T09:43:33;10.20;50.70
46366;DHT22;32073;49.166;8.076;2023-04-03T09:47:36;10.10;50.30
46366;DHT22;32073;49.166;8.076;2023-04-03T09:51:37;10.10;50.80
46366;DHT22;32073;49.166;8.076;2023-04-03T09:55:43;10.10;50.60
46366;DHT22;32073;49.166;8.076;2023-04-03T09:59:57;10.10;50.10
46366;DHT22;32073;49.166;8.076;2023-04-03T10:04:06;10.20;50.00
46366;DHT22;32073;49.166;8.076;2023-04-03T10:12:19;10.30;51.10
46366;DHT22;32073;49.166;8.076;2023-04-03T10:20:42;10.50;50.70
46366;DHT22;32073;49.166;8.076;2023-04-03T10:24:52;10.70;51.50
46366;DHT22;32073;49.166;8.076;2023-04-03T10:51:56;11.00;49.10
46366;DHT22;32073;49.166;8.076;2023-04-03T10:56:25;11.00;48.80
46366;DHT22;32073;49.166;8.076;2023-04-03T11:00:45;11.10;48.40
46366;DHT22;32073;49.166;8.076;2023-04-03T11:04:51;11.20;49.00
46366;DHT22;32073;49.166;8.076;2023-04-03T11:09:02;11.30;48.70
46366;DHT22;32073;49.166;8.076;2023-04-03T11:13:17;11.30;48.30
46366;DHT22;32073;49.166;8.076;2023-04-03T11:17:43;11.30;47.80
46366;DHT22;32073;49.166;8.076;2023-04-03T11:21:54;11.40;48.10
46366;DHT22;32073;49.166;8.076;2023-04-03T11:26:17;11.40;48.10
46366;DHT22;32073;49.166;8.076;2023-04-03T11:30:46;11.50;47.30
46366;DHT22;32073;49.166;8.076;2023-04-03T11:34:54;11.50;47.30
46366;DHT22;32073;49.166;8.076;2023-04-03T11:39:24;11.60;47.70
46366;DHT22;32073;49.166;8.076;2023-04-03T11:43:31;11.70;47.40
46366;DHT22;32073;49.166;8.076;2023-04-03T11:47:47;11.80;47.80
46366;DHT22;32073;49.166;8.076;2023-04-03T11:51:49;11.80;47.30
46366;DHT22;32073;49.166;8.076;2023-04-03T11:59:50;11.90;47.00
46366;DHT22;32073;49.166;8.076;2023-04-03T12:12:35;12.00;46.00
46366;DHT22;32073;49.166;8.076;2023-04-03T12:20:54;12.10;46.70
46366;DHT22;32073;49.166;8.076;2023-04-03T12:24:56;12.20;46.10
46366;DHT22;32073;49.166;8.076;2023-04-03T12:28:57;12.20;46.30
46366;DHT22;32073;49.166;8.076;2023-04-03T12:33:10;12.20;46.00
46366;DHT22;32073;49.166;8.076;2023-04-03T12:38:21;12.20;45.10
46366;DHT22;32073;49.166;8.076;2023-04-03T12:46:38;12.30;45.00
46366;DHT22;32073;49.166;8.076;2023-04-03T12:50:46;12.30;45.40
46366;DHT22;32073;49.166;8.076;2023-04-03T12:54:48;12.30;45.30
46366;DHT22;32073;49.166;8.076;2023-04-03T12:58:52;12.40;45.30
46366;DHT22;32073;49.166;8.076;2023-04-03T13:02:54;12.30;45.10
46366;DHT22;32073;49.166;8.076;2023-04-03T13:06:56;12.40;45.20
46366;DHT22;32073;49.166;8.076;2023-04-03T13:11:10;12.40;45.00
46366;DHT22;32073;49.166;8.076;2023-04-03T13:15:16;12.40;44.10
46366;DHT22;32073;49.166;8.076;2023-04-03T13:19:18;12.50;44.60
46366;DHT22;32073;49.166;8.076;2023-04-03T13:23:19;12.50;44.40
46366;DHT22;32073;49.166;8.076;2023-04-03T13:27:21;12.50;44.20
46366;DHT22;32073;49.166;8.076;2023-04-03T13:31:26;12.40;43.80
46366;DHT22;32073;49.166;8.076;2023-04-03T13:35:38;12.40;43.60
46366;DHT22;32073;49.166;8.076;2023-04-03T13:39:40;12.40;43.40
46366;DHT22;32073;49.166;8.076;2023-04-03T13:43:40;12.40;43.80
46366;DHT22;32073;49.166;8.076;2023-04-03T13:47:43;12.40;44.60
46366;DHT22;32073;49.166;8.076;2023-04-03T13:51:45;12.40;43.60
46366;DHT22;32073;49.166;8.076;2023-04-03T13:56:08;12.40;43.60
46366;DHT22;32073;49.166;8.076;2023-04-03T14:08:41;12.50;43.20
46366;DHT22;32073;49.166;8.076;2023-04-03T14:12:42;12.50;43.10
46366;DHT22;32073;49.166;8.076;2023-04-03T14:16:47;12.40;43.00
46366;DHT22;32073;49.166;8.076;2023-04-03T14:20:51;12.30;42.70
46366;DHT22;32073;49.166;8.076;2023-04-03T14:24:52;12.30;43.20
46366;DHT22;32073;49.166;8.076;2023-04-03T14:28:54;12.30;42.80
46366;DHT22;32073;49.166;8.076;2023-04-03T14:32:56;12.30;42.40
46366;DHT22;32073;49.166;8.076;2023-04-03T14:36:57;12.30;42.20
46366;DHT22;32073;49.166;8.076;2023-04-03T14:40:58;12.20;42.00
46366;DHT22;32073;49.166;8.076;2023-04-03T14:45:02;12.20;41.90
46366;DHT22;32073;49.166;8.076;2023-04-03T14:49:15;12.20;41.90
46366;DHT22;32073;49.166;8.076;2023-04-03T14:53:21;12.20;41.70
46366;DHT22;32073;49.166;8.076;2023-04-03T14:57:26;12.20;42.30
46366;DHT22;32073;49.166;8.076;2023-04-03T15:01:28;12.20;42.20
46366;DHT22;32073;49.166;8.076;2023-04-03T15:05:28;12.30;42.30
46366;DHT22;32073;49.166;8.076;2023-04-03T15:09:29;12.30;42.00
46366;DHT22;32073;49.166;8.076;2023-04-03T15:13:30;12.30;41.70
46366;DHT22;32073;49.166;8.076;2023-04-03T15:17:30;12.20;41.50
46366;DHT22;32073;49.166;8.076;2023-04-03T15:21:31;12.20;41.50
46366;DHT22;32073;49.166;8.076;2023-04-03T15:25:32;12.20;41.60
46366;DHT22;32073;49.166;8.076;2023-04-03T15:29:33;12.20;41.60
46366;DHT22;32073;49.166;8.076;2023-04-03T15:33:35;12.10;41.40
46366;DHT22;32073;49.166;8.076;2023-04-03T15:37:36;12.10;41.50
46366;DHT22;32073;49.166;8.076;2023-04-03T15:41:37;12.10;41.70
46366;DHT22;32073;49.166;8.076;2023-04-03T15:45:37;12.10;41.60
46366;DHT22;32073;49.166;8.076;2023-04-03T15:49:38;12.10;41.60
46366;DHT22;32073;49.166;8.076;2023-04-03T15:53:39;12.20;41.40
46366;DHT22;32073;49.166;8.076;2023-04-03T15:57:40;12.20;41.40
46366;DHT22;32073;49.166;8.076;2023-04-03T16:01:40;12.20;41.10
46366;DHT22;32073;49.166;8.076;2023-04-03T16:05:41;12.20;40.90
46366;DHT22;32073;49.166;8.076;2023-04-03T16:09:42;12.20;41.00
46366;DHT22;32073;49.166;8.076;2023-04-03T16:13:43;12.10;40.90
46366;DHT22;32073;49.166;8.076;2023-04-03T16:17:44;12.00;40.90
46366;DHT22;32073;49.166;8.076;2023-04-03T16:21:45;12.00;40.90
46366;DHT22;32073;49.166;8.076;2023-04-03T16:25:47;12.00;41.00
46366;DHT22;32073;49.166;8.076;2023-04-03T16:29:49;12.00;40.90
46366;DHT22;32073;49.166;8.076;2023-04-03T16:33:50;12.00;41.10
46366;DHT22;32073;49.166;8.076;2023-04-03T16:37:51;12.00;41.20
46366;DHT22;32073;49.166;8.076;2023-04-03T16:41:52;12.00;41.10
46366;DHT22;32073;49.166;8.076;2023-04-03T16:45:52;12.10;41.00
46366;DHT22;32073;49.166;8.076;2023-04-03T16:49:53;12.20;40.90
46366;DHT22;32073;49.166;8.076;2023-04-03T16:53:54;12.00;40.60
46366;DHT22;32073;49.166;8.076;2023-04-03T16:57:54;11.90;40.50
46366;DHT22;32073;49.166;8.076;2023-04-03T17:01:55;11.90;40.60
46366;DHT22;32073;49.166;8.076;2023-04-03T17:05:56;11.90;40.60
46366;DHT22;32073;49.166;8.076;2023-04-03T17:09:56;11.80;40.70
46366;DHT22;32073;49.166;8.076;2023-04-03T17:13:57;11.70;40.60
46366;DHT22;32073;49.166;8.076;2023-04-03T17:17:58;11.70;40.60
46366;DHT22;32073;49.166;8.076;2023-04-03T17:21:59;11.60;40.60
46366;DHT22;32073;49.166;8.076;2023-04-03T17:26:01;11.60;40.60
46366;DHT22;32073;49.166;8.076;2023-04-03T17:30:03;11.50;40.50
46366;DHT22;32073;49.166;8.076;2023-04-03T17:34:04;11.50;40.50
46366;DHT22;32073;49.166;8.076;2023-04-03T17:38:05;11.40;40.40
46366;DHT22;32073;49.166;8.076;2023-04-03T17:42:06;11.30;40.40
46366;DHT22;32073;49.166;8.076;2023-04-03T17:46:08;11.20;40.50
46366;DHT22;32073;49.166;8.076;2023-04-03T17:50:10;11.10;40.50
46366;DHT22;32073;49.166;8.076;2023-04-03T17:54:11;11.10;40.70
46366;DHT22;32073;49.166;8.076;2023-04-03T17:58:12;11.00;40.90
46366;DHT22;32073;49.166;8.076;2023-04-03T18:02:12;10.90;40.90
46366;DHT22;32073;49.166;8.076;2023-04-03T18:06:16;10.80;40.90
46366;DHT22;32073;49.166;8.076;2023-04-03T18:10:18;10.80;41.00
46366;DHT22;32073;49.166;8.076;2023-04-03T18:14:21;10.70;40.90
46366;DHT22;32073;49.166;8.076;2023-04-03T18:18:23;10.60;40.80
46366;DHT22;32073;49.166;8.076;2023-04-03T18:22:24;10.40;40.80
46366;DHT22;32073;49.166;8.076;2023-04-03T18:26:26;10.30;40.70
46366;DHT22;32073;49.166;8.076;2023-04-03T18:30:27;10.20;40.60
46366;DHT22;32073;49.166;8.076;2023-04-03T18:34:29;10.10;40.70
46366;DHT22;32073;49.166;8.076;2023-04-03T18:38:30;10.00;40.70
46366;DHT22;32073;49.166;8.076;2023-04-03T18:42:31;9.90;40.70
46366;DHT22;32073;49.166;8.076;2023-04-03T18:46:32;9.80;40.70
46366;DHT22;32073;49.166;8.076;2023-04-03T18:50:33;9.70;40.70
46366;DHT22;32073;49.166;8.076;2023-04-03T18:54:34;9.60;40.70
46366;DHT22;32073;49.166;8.076;2023-04-03T18:58:36;9.50;40.60
46366;DHT22;32073;49.166;8.076;2023-04-03T19:02:37;9.50;40.70
46366;DHT22;32073;49.166;8.076;2023-04-03T19:06:39;9.50;40.70
46366;DHT22;32073;49.166;8.076;2023-04-03T19:10:41;9.30;40.60
46366;DHT22;32073;49.166;8.076;2023-04-03T19:14:42;9.30;40.70
46366;DHT22;32073;49.166;8.076;2023-04-03T19:18:43;9.20;40.80
46366;DHT22;32073;49.166;8.076;2023-04-03T19:22:43;9.20;40.80
46366;DHT22;32073;49.166;8.076;2023-04-03T19:26:44;9.10;40.80
46366;DHT22;32073;49.166;8.076;2023-04-03T19:30:45;9.10;40.80
46366;DHT22;32073;49.166;8.076;2023-04-03T19:34:47;9.10;40.80
46366;DHT22;32073;49.166;8.076;2023-04-03T19:38:48;9.00;40.70
46366;DHT22;32073;49.166;8.076;2023-04-03T19:42:48;9.00;40.80
46366;DHT22;32073;49.166;8.076;2023-04-03T19:46:49;8.90;40.80
46366;DHT22;32073;49.166;8.076;2023-04-03T19:50:50;8.80;40.80
46366;DHT22;32073;49.166;8.076;2023-04-03T19:54:50;8.70;40.80
46366;DHT22;32073;49.166;8.076;2023-04-03T19:58:51;8.70;40.80
46366;DHT22;32073;49.166;8.076;2023-04-03T20:02:54;8.60;40.90
46366;DHT22;32073;49.166;8.076;2023-04-03T20:06:55;8.50;40.90
46366;DHT22;32073;49.166;8.076;2023-04-03T20:10:56;8.50;41.00
46366;DHT22;32073;49.166;8.076;2023-04-03T20:14:56;8.40;41.00
46366;DHT22;32073;49.166;8.076;2023-04-03T20:18:59;8.40;41.10
46366;DHT22;32073;49.166;8.076;2023-04-03T20:23:00;8.40;41.30
46366;DHT22;32073;49.166;8.076;2023-04-03T20:27:01;8.40;41.40
46366;DHT22;32073;49.166;8.076;2023-04-03T20:31:02;8.40;41.40
46366;DHT22;32073;49.166;8.076;2023-04-03T20:35:04;8.30;41.40
46366;DHT22;32073;49.166;8.076;2023-04-03T20:39:05;8.30;41.50
46366;DHT22;32073;49.166;8.076;2023-04-03T20:43:06;8.20;41.50
46366;DHT22;32073;49.166;8.076;2023-04-03T20:47:07;8.10;41.50
46366;DHT22;32073;49.166;8.076;2023-04-03T20:51:15;8.00;41.50
46366;DHT22;32073;49.166;8.076;2023-04-03T20:55:17;8.00;41.60
46366;DHT22;32073;49.166;8.076;2023-04-03T20:59:18;7.90;41.60
46366;DHT22;32073;49.166;8.076;2023-04-03T21:03:19;7.90;41.70
46366;DHT22;32073;49.166;8.076;2023-04-03T21:21:22;7.70;41.70
46366;DHT22;32073;49.166;8.076;2023-04-03T21:25:24;7.60;41.90
46366;DHT22;32073;49.166;8.076;2023-04-03T21:29:26;7.50;42.00
46366;DHT22;32073;49.166;8.076;2023-04-03T21:33:27;7.50;42.10
46366;DHT22;32073;49.166;8.076;2023-04-03T21:37:27;7.40;42.20
46366;DHT22;32073;49.166;8.076;2023-04-03T21:41:28;7.40;42.20
46366;DHT22;32073;49.166;8.076;2023-04-03T21:45:28;7.30;42.30
46366;DHT22;32073;49.166;8.076;2023-04-03T21:49:29;7.30;42.40
46366;DHT22;32073;49.166;8.076;2023-04-03T21:53:30;7.20;42.40
46366;DHT22;32073;49.166;8.076;2023-04-03T21:57:31;7.20;42.50
46366;DHT22;32073;49.166;8.076;2023-04-03T22:01:32;7.10;42.50
46366;DHT22;32073;49.166;8.076;2023-04-03T22:05:32;7.10;42.60
46366;DHT22;32073;49.166;8.076;2023-04-03T22:09:35;7.00;42.60
46366;DHT22;32073;49.166;8.076;2023-04-03T22:13:35;7.00;42.70
46366;DHT22;32073;49.166;8.076;2023-04-03T22:17:36;6.90;42.70
46366;DHT22;32073;49.166;8.076;2023-04-03T22:21:37;6.90;42.80
46366;DHT22;32073;49.166;8.076;2023-04-03T22:25:38;6.90;42.80
46366;DHT22;32073;49.166;8.076;2023-04-03T22:29:38;6.90;42.80
46366;DHT22;32073;49.166;8.076;2023-04-03T22:33:41;6.80;42.80
46366;DHT22;32073;49.166;8.076;2023-04-03T22:37:42;6.80;42.90
46366;DHT22;32073;49.166;8.076;2023-04-03T22:41:43;6.80;42.90
46366;DHT22;32073;49.166;8.076;2023-04-03T22:45:48;6.70;42.90
46366;DHT22;32073;49.166;8.076;2023-04-03T22:49:49;6.70;43.00
46366;DHT22;32073;49.166;8.076;2023-04-03T22:53:50;6.70;42.90
46366;DHT22;32073;49.166;8.076;2023-04-03T22:57:50;6.60;42.90
46366;DHT22;32073;49.166;8.076;2023-04-03T23:01:51;6.60;43.00
46366;DHT22;32073;49.166;8.076;2023-04-03T23:05:52;6.60;43.00
46366;DHT22;32073;49.166;8.076;2023-04-03T23:09:52;6.50;43.00
46366;DHT22;32073;49.166;8.076;2023-04-03T23:13:53;6.50;43.10
46366;DHT22;32073;49.166;8.076;2023-04-03T23:17:53;6.50;43.10
46366;DHT22;32073;49.166;8.076;2023-04-03T23:21:54;6.50;43.20
46366;DHT22;32073;49.166;8.076;2023-04-03T23:25:56;6.40;43.20
46366;DHT22;32073;49.166;8.076;2023-04-03T23:29:58;6.30;43.20
46366;DHT22;32073;49.166;8.076;2023-04-03T23:33:58;6.30;43.20
46366;DHT22;32073;49.166;8.076;2023-04-03T23:37:59;6.20;43.20
46366;DHT22;32073;49.166;8.076;2023-04-03T23:42:00;6.20;43.30
46366;DHT22;32073;49.166;8.076;2023-04-03T23:46:00;6.20;43.30
46366;DHT22;32073;49.166;8.076;2023-04-03T23:50:01;6.10;43.40
46366;DHT22;32073;49.166;8.076;2023-04-03T23:54:02;6.10;43.50
46366;DHT22;32073;49.166;8.076;2023-04-03T23:58:03;6.10;44.10
